Ashland, SC

12:57 PM EST on November 26, 2014 (GMT -0500)
McBee,SC | Change Station
CLOSE
Current Station
Personal Weather Station
Location: McBee, SC
Elevation: 210 ft
Nearby Weather Stations

Elev 210 ft 34.37 °N, 80.28 °W | Updated 11 minutes ago

Overcast
Overcast
48.6 °F
Feels Like 47 °F
N
4.0
Wind Variable Wind from ENE

Today
High -- | Low -- °F
--% Chance of Precip.
Yesterday
High -- | Low -- °F
Precip. -- in
7:04 AM 5:12 PM
Waxing Crescent, 21% visible
Pressure 30.01 in
Visibility 10.0 miles
Clouds Mostly Cloudy 1500 ft
Overcast 2000 ft
Windchill 47 °F
Dew Point 47 °F
Humidity 95%
Rainfall 1.00 in
Snow Depth Not available.
UV 1 out of 12
Pollen .40 out of 12
Air Quality Not available.
Flu Activity Not available.
METAR KSMS 261735Z AUTO 31009KT 10SM BKN015 OVC020 11/09 A3001 RMK AO2

More Conditions Fewer Conditions

Pressure 30.01 in
Visibility 10.0 miles
Clouds Mostly Cloudy 1500 ft
Overcast 2000 ft
Windchill 47 °F
Dew Point 47 °F
Humidity 95%
Rainfall 1.00 in
Snow Depth Not available.
UV 1 out of 12
Pollen .40 out of 12
Air Quality Not available.
Flu Activity Not available.
METAR KSMS 261735Z AUTO 31009KT 10SM BKN015 OVC020 11/09 A3001 RMK AO2

More Conditions Fewer Conditions

10-Day Weather Forecast

Almanac

Astronomy

Nov. 26, 2014 Rise Set
Actual Time
Civil Twilight
Nautical Twilight
Astronomical Twilight
Moon
Length of Visible Light
Length of Day
Tomorrow will be .
, % of the Moon is Illuminated

Today's Extremes

State Highs State Lows

Community

WunderPhotos

Upload Photos

1,773,808 photos uploaded!

WunderBlogs® & News

Nearby

Air Quality

  Air Quality AQ Index Pollutant
Not available.

Snow Depth

Station Depth Elevation

Earthquake Activity

City Distance Mag. Time & Date
Minimum magnitude displayed is 2.5.

Coastal Water Temperatures

Place Temperature

Nearby Weather Stations